sensor_id;sensor_type;location;lat;lon;timestamp;P1;durP1;ratioP1;P2;durP2;ratioP2
71771;SDS011;59606;52.138;5.424;2022-12-29T00:01:54;3.05;;;1.70;;
71771;SDS011;59606;52.138;5.424;2022-12-29T00:04:21;4.15;;;1.63;;
71771;SDS011;59606;52.138;5.424;2022-12-29T00:06:48;4.40;;;1.58;;
71771;SDS011;59606;52.138;5.424;2022-12-29T00:09:16;4.23;;;1.40;;
71771;SDS011;59606;52.138;5.424;2022-12-29T00:11:42;4.88;;;1.70;;
71771;SDS011;59606;52.138;5.424;2022-12-29T00:14:09;3.25;;;1.58;;
71771;SDS011;59606;52.138;5.424;2022-12-29T00:16:55;3.28;;;1.55;;
71771;SDS011;59606;52.138;5.424;2022-12-29T00:19:22;3.85;;;1.30;;
71771;SDS011;59606;52.138;5.424;2022-12-29T00:22:09;2.30;;;1.10;;
71771;SDS011;59606;52.138;5.424;2022-12-29T00:25:03;2.92;;;1.35;;
71771;SDS011;59606;52.138;5.424;2022-12-29T00:27:49;2.20;;;0.93;;
71771;SDS011;59606;52.138;5.424;2022-12-29T00:30:34;3.33;;;1.33;;
71771;SDS011;59606;52.138;5.424;2022-12-29T00:33:21;2.83;;;1.58;;
71771;SDS011;59606;52.138;5.424;2022-12-29T00:38:55;4.35;;;1.45;;
71771;SDS011;59606;52.138;5.424;2022-12-29T00:41:44;4.47;;;1.50;;
71771;SDS011;59606;52.138;5.424;2022-12-29T00:44:29;2.88;;;1.33;;
71771;SDS011;59606;52.138;5.424;2022-12-29T00:46:56;2.10;;;1.20;;
71771;SDS011;59606;52.138;5.424;2022-12-29T00:49:22;4.47;;;1.30;;
71771;SDS011;59606;52.138;5.424;2022-12-29T00:52:02;1.25;;;0.90;;
71771;SDS011;59606;52.138;5.424;2022-12-29T00:54:34;2.33;;;1.23;;
71771;SDS011;59606;52.138;5.424;2022-12-29T00:57:03;2.13;;;1.10;;
71771;SDS011;59606;52.138;5.424;2022-12-29T00:59:31;3.15;;;1.35;;
71771;SDS011;59606;52.138;5.424;2022-12-29T01:01:57;3.57;;;1.10;;
71771;SDS011;59606;52.138;5.424;2022-12-29T01:04:25;3.20;;;1.13;;
71771;SDS011;59606;52.138;5.424;2022-12-29T01:06:52;3.75;;;1.20;;
71771;SDS011;59606;52.138;5.424;2022-12-29T01:09:19;2.85;;;0.95;;
71771;SDS011;59606;52.138;5.424;2022-12-29T01:12:04;2.72;;;0.80;;
71771;SDS011;59606;52.138;5.424;2022-12-29T01:14:32;2.10;;;0.80;;
71771;SDS011;59606;52.138;5.424;2022-12-29T01:16:59;2.97;;;1.10;;
71771;SDS011;59606;52.138;5.424;2022-12-29T01:19:25;5.03;;;1.45;;
71771;SDS011;59606;52.138;5.424;2022-12-29T01:21:52;4.43;;;1.20;;
71771;SDS011;59606;52.138;5.424;2022-12-29T01:24:19;2.90;;;0.88;;
71771;SDS011;59606;52.138;5.424;2022-12-29T01:26:46;2.20;;;0.70;;
71771;SDS011;59606;52.138;5.424;2022-12-29T01:29:14;3.70;;;0.80;;
71771;SDS011;59606;52.138;5.424;2022-12-29T01:31:42;2.55;;;0.80;;
71771;SDS011;59606;52.138;5.424;2022-12-29T01:34:08;1.67;;;0.70;;
71771;SDS011;59606;52.138;5.424;2022-12-29T01:36:35;1.73;;;0.85;;
71771;SDS011;59606;52.138;5.424;2022-12-29T01:39:02;2.70;;;0.83;;
71771;SDS011;59606;52.138;5.424;2022-12-29T01:41:28;3.03;;;1.00;;
71771;SDS011;59606;52.138;5.424;2022-12-29T01:43:56;1.75;;;0.90;;
71771;SDS011;59606;52.138;5.424;2022-12-29T01:49:37;6.03;;;1.20;;
71771;SDS011;59606;52.138;5.424;2022-12-29T01:51:46;3.10;;;1.40;;
71771;SDS011;59606;52.138;5.424;2022-12-29T01:54:18;3.90;;;1.10;;
71771;SDS011;59606;52.138;5.424;2022-12-29T01:56:50;2.90;;;1.30;;
71771;SDS011;59606;52.138;5.424;2022-12-29T01:59:20;5.18;;;1.15;;
71771;SDS011;59606;52.138;5.424;2022-12-29T02:01:50;2.15;;;1.02;;
71771;SDS011;59606;52.138;5.424;2022-12-29T02:04:17;1.97;;;0.93;;
71771;SDS011;59606;52.138;5.424;2022-12-29T02:07:26;3.38;;;1.15;;
71771;SDS011;59606;52.138;5.424;2022-12-29T02:09:36;3.15;;;0.93;;
71771;SDS011;59606;52.138;5.424;2022-12-29T02:12:03;3.42;;;1.10;;
71771;SDS011;59606;52.138;5.424;2022-12-29T02:14:29;2.65;;;1.25;;
71771;SDS011;59606;52.138;5.424;2022-12-29T02:36:24;1.30;;;0.90;;
71771;SDS011;59606;52.138;5.424;2022-12-29T02:39:12;2.10;;;0.73;;
71771;SDS011;59606;52.138;5.424;2022-12-29T02:44:49;6.47;;;1.23;;
71771;SDS011;59606;52.138;5.424;2022-12-29T02:47:40;3.53;;;0.45;;
71771;SDS011;59606;52.138;5.424;2022-12-29T02:53:21;4.90;;;1.17;;
71771;SDS011;59606;52.138;5.424;2022-12-29T02:56:09;5.47;;;0.77;;
71771;SDS011;59606;52.138;5.424;2022-12-29T02:58:36;3.57;;;0.50;;
71771;SDS011;59606;52.138;5.424;2022-12-29T03:01:17;5.65;;;0.60;;
71771;SDS011;59606;52.138;5.424;2022-12-29T03:09:21;1.08;;;0.60;;
71771;SDS011;59606;52.138;5.424;2022-12-29T03:15:34;2.60;;;1.42;;
71771;SDS011;59606;52.138;5.424;2022-12-29T03:18:30;1.65;;;0.57;;
71771;SDS011;59606;52.138;5.424;2022-12-29T03:21:29;4.00;;;0.57;;
71771;SDS011;59606;52.138;5.424;2022-12-29T03:24:22;3.67;;;1.08;;
71771;SDS011;59606;52.138;5.424;2022-12-29T03:26:53;1.70;;;0.87;;
71771;SDS011;59606;52.138;5.424;2022-12-29T03:29:23;5.30;;;0.90;;
71771;SDS011;59606;52.138;5.424;2022-12-29T03:31:50;1.85;;;0.98;;
71771;SDS011;59606;52.138;5.424;2022-12-29T03:34:20;7.80;;;1.45;;
71771;SDS011;59606;52.138;5.424;2022-12-29T03:36:49;2.85;;;0.88;;
71771;SDS011;59606;52.138;5.424;2022-12-29T03:39:20;4.87;;;1.03;;
71771;SDS011;59606;52.138;5.424;2022-12-29T03:41:50;4.55;;;1.30;;
71771;SDS011;59606;52.138;5.424;2022-12-29T03:44:30;2.70;;;1.50;;
71771;SDS011;59606;52.138;5.424;2022-12-29T03:46:58;5.13;;;1.50;;
71771;SDS011;59606;52.138;5.424;2022-12-29T03:49:24;3.55;;;0.85;;
71771;SDS011;59606;52.138;5.424;2022-12-29T03:51:51;4.50;;;1.20;;
71771;SDS011;59606;52.138;5.424;2022-12-29T03:54:17;3.90;;;1.30;;
71771;SDS011;59606;52.138;5.424;2022-12-29T03:56:44;8.23;;;1.67;;
71771;SDS011;59606;52.138;5.424;2022-12-29T03:59:10;6.90;;;1.75;;
71771;SDS011;59606;52.138;5.424;2022-12-29T04:01:36;6.93;;;2.38;;
71771;SDS011;59606;52.138;5.424;2022-12-29T04:04:03;3.53;;;1.13;;
71771;SDS011;59606;52.138;5.424;2022-12-29T04:06:30;2.88;;;0.82;;
71771;SDS011;59606;52.138;5.424;2022-12-29T04:08:56;2.60;;;1.00;;
71771;SDS011;59606;52.138;5.424;2022-12-29T04:11:22;2.85;;;0.85;;
71771;SDS011;59606;52.138;5.424;2022-12-29T04:13:56;2.88;;;0.98;;
71771;SDS011;59606;52.138;5.424;2022-12-29T04:16:22;1.70;;;0.70;;
71771;SDS011;59606;52.138;5.424;2022-12-29T04:18:49;3.63;;;0.90;;
71771;SDS011;59606;52.138;5.424;2022-12-29T04:21:15;3.78;;;0.80;;
71771;SDS011;59606;52.138;5.424;2022-12-29T04:23:43;3.88;;;0.80;;
71771;SDS011;59606;52.138;5.424;2022-12-29T04:26:09;3.35;;;0.85;;
71771;SDS011;59606;52.138;5.424;2022-12-29T04:28:36;2.30;;;0.63;;
71771;SDS011;59606;52.138;5.424;2022-12-29T04:31:03;3.97;;;0.68;;
71771;SDS011;59606;52.138;5.424;2022-12-29T04:33:30;8.68;;;1.17;;
71771;SDS011;59606;52.138;5.424;2022-12-29T04:35:57;4.53;;;0.75;;
71771;SDS011;59606;52.138;5.424;2022-12-29T04:38:23;3.80;;;0.82;;
71771;SDS011;59606;52.138;5.424;2022-12-29T04:40:50;4.17;;;0.80;;
71771;SDS011;59606;52.138;5.424;2022-12-29T04:43:17;8.50;;;0.93;;
71771;SDS011;59606;52.138;5.424;2022-12-29T04:45:50;4.30;;;0.93;;
71771;SDS011;59606;52.138;5.424;2022-12-29T04:48:17;5.97;;;0.60;;
71771;SDS011;59606;52.138;5.424;2022-12-29T04:50:43;4.57;;;0.88;;
71771;SDS011;59606;52.138;5.424;2022-12-29T04:53:13;8.27;;;1.37;;
71771;SDS011;59606;52.138;5.424;2022-12-29T04:55:39;7.70;;;0.70;;
71771;SDS011;59606;52.138;5.424;2022-12-29T04:58:06;7.47;;;0.63;;
71771;SDS011;59606;52.138;5.424;2022-12-29T05:00:32;6.53;;;0.85;;
71771;SDS011;59606;52.138;5.424;2022-12-29T05:02:59;6.75;;;0.95;;
71771;SDS011;59606;52.138;5.424;2022-12-29T05:05:26;9.50;;;1.00;;
71771;SDS011;59606;52.138;5.424;2022-12-29T05:07:52;2.40;;;0.60;;
71771;SDS011;59606;52.138;5.424;2022-12-29T05:10:19;6.50;;;0.80;;
71771;SDS011;59606;52.138;5.424;2022-12-29T05:12:45;7.70;;;1.98;;
71771;SDS011;59606;52.138;5.424;2022-12-29T05:15:12;7.30;;;1.40;;
71771;SDS011;59606;52.138;5.424;2022-12-29T05:17:39;7.67;;;1.40;;
71771;SDS011;59606;52.138;5.424;2022-12-29T05:20:06;16.85;;;4.85;;
71771;SDS011;59606;52.138;5.424;2022-12-29T05:22:33;15.45;;;3.00;;
71771;SDS011;59606;52.138;5.424;2022-12-29T05:24:59;11.60;;;2.20;;
71771;SDS011;59606;52.138;5.424;2022-12-29T05:27:26;8.70;;;1.63;;
71771;SDS011;59606;52.138;5.424;2022-12-29T05:29:52;12.50;;;3.60;;
71771;SDS011;59606;52.138;5.424;2022-12-29T05:32:19;11.75;;;1.65;;
71771;SDS011;59606;52.138;5.424;2022-12-29T05:34:45;9.18;;;1.60;;
71771;SDS011;59606;52.138;5.424;2022-12-29T05:37:12;6.25;;;0.80;;
71771;SDS011;59606;52.138;5.424;2022-12-29T05:39:38;6.60;;;0.90;;
71771;SDS011;59606;52.138;5.424;2022-12-29T05:42:05;4.60;;;1.20;;
71771;SDS011;59606;52.138;5.424;2022-12-29T05:44:31;7.82;;;1.23;;
71771;SDS011;59606;52.138;5.424;2022-12-29T05:46:57;6.10;;;0.90;;
71771;SDS011;59606;52.138;5.424;2022-12-29T05:49:24;7.90;;;0.93;;
71771;SDS011;59606;52.138;5.424;2022-12-29T05:51:50;9.75;;;1.23;;
71771;SDS011;59606;52.138;5.424;2022-12-29T05:54:17;6.47;;;1.10;;
71771;SDS011;59606;52.138;5.424;2022-12-29T05:56:43;7.28;;;0.95;;
71771;SDS011;59606;52.138;5.424;2022-12-29T05:59:10;6.25;;;0.90;;
71771;SDS011;59606;52.138;5.424;2022-12-29T06:01:36;7.25;;;1.10;;
71771;SDS011;59606;52.138;5.424;2022-12-29T06:04:03;3.33;;;0.60;;
71771;SDS011;59606;52.138;5.424;2022-12-29T06:06:29;6.77;;;1.40;;
71771;SDS011;59606;52.138;5.424;2022-12-29T06:08:56;8.95;;;0.95;;
71771;SDS011;59606;52.138;5.424;2022-12-29T06:11:23;5.00;;;0.88;;
71771;SDS011;59606;52.138;5.424;2022-12-29T06:13:49;4.78;;;0.90;;
71771;SDS011;59606;52.138;5.424;2022-12-29T06:16:15;3.70;;;0.82;;
71771;SDS011;59606;52.138;5.424;2022-12-29T06:18:42;5.97;;;0.60;;
71771;SDS011;59606;52.138;5.424;2022-12-29T06:21:09;5.68;;;1.00;;
71771;SDS011;59606;52.138;5.424;2022-12-29T06:23:35;9.10;;;0.93;;
71771;SDS011;59606;52.138;5.424;2022-12-29T06:26:03;7.32;;;0.77;;
71771;SDS011;59606;52.138;5.424;2022-12-29T06:28:29;8.73;;;1.40;;
71771;SDS011;59606;52.138;5.424;2022-12-29T06:30:56;12.43;;;1.10;;
71771;SDS011;59606;52.138;5.424;2022-12-29T06:33:23;11.00;;;1.15;;
71771;SDS011;59606;52.138;5.424;2022-12-29T06:35:49;11.63;;;1.10;;
71771;SDS011;59606;52.138;5.424;2022-12-29T06:38:16;6.78;;;1.08;;
71771;SDS011;59606;52.138;5.424;2022-12-29T06:40:42;11.68;;;1.85;;
71771;SDS011;59606;52.138;5.424;2022-12-29T06:43:11;7.77;;;1.40;;
71771;SDS011;59606;52.138;5.424;2022-12-29T06:45:38;9.25;;;0.90;;
71771;SDS011;59606;52.138;5.424;2022-12-29T06:48:06;6.07;;;0.82;;
71771;SDS011;59606;52.138;5.424;2022-12-29T06:50:33;10.32;;;1.10;;
71771;SDS011;59606;52.138;5.424;2022-12-29T06:52:59;7.50;;;1.00;;
71771;SDS011;59606;52.138;5.424;2022-12-29T06:55:26;12.33;;;1.30;;
71771;SDS011;59606;52.138;5.424;2022-12-29T06:57:57;14.25;;;0.90;;
71771;SDS011;59606;52.138;5.424;2022-12-29T07:00:24;6.55;;;0.80;;
71771;SDS011;59606;52.138;5.424;2022-12-29T07:02:51;7.05;;;1.00;;
71771;SDS011;59606;52.138;5.424;2022-12-29T07:05:20;4.35;;;1.23;;
71771;SDS011;59606;52.138;5.424;2022-12-29T07:07:47;5.50;;;1.03;;
71771;SDS011;59606;52.138;5.424;2022-12-29T07:10:13;9.75;;;1.00;;
71771;SDS011;59606;52.138;5.424;2022-12-29T07:12:40;10.20;;;1.27;;
71771;SDS011;59606;52.138;5.424;2022-12-29T07:15:06;10.35;;;1.20;;
71771;SDS011;59606;52.138;5.424;2022-12-29T07:17:33;5.40;;;0.88;;
71771;SDS011;59606;52.138;5.424;2022-12-29T07:20:00;6.23;;;0.70;;
71771;SDS011;59606;52.138;5.424;2022-12-29T07:22:26;5.68;;;0.80;;
71771;SDS011;59606;52.138;5.424;2022-12-29T07:24:53;9.00;;;0.82;;
71771;SDS011;59606;52.138;5.424;2022-12-29T07:27:19;6.75;;;0.85;;
71771;SDS011;59606;52.138;5.424;2022-12-29T07:29:46;7.85;;;1.38;;
71771;SDS011;59606;52.138;5.424;2022-12-29T07:32:12;6.23;;;1.10;;
71771;SDS011;59606;52.138;5.424;2022-12-29T07:34:39;5.63;;;1.05;;
71771;SDS011;59606;52.138;5.424;2022-12-29T07:37:05;4.80;;;0.70;;
71771;SDS011;59606;52.138;5.424;2022-12-29T07:39:32;5.60;;;0.90;;
71771;SDS011;59606;52.138;5.424;2022-12-29T07:41:58;5.93;;;0.90;;
71771;SDS011;59606;52.138;5.424;2022-12-29T07:44:30;4.57;;;0.97;;
71771;SDS011;59606;52.138;5.424;2022-12-29T07:46:56;9.48;;;1.15;;
71771;SDS011;59606;52.138;5.424;2022-12-29T07:49:24;4.60;;;0.93;;
71771;SDS011;59606;52.138;5.424;2022-12-29T07:51:51;5.45;;;0.75;;
71771;SDS011;59606;52.138;5.424;2022-12-29T07:54:17;4.55;;;0.73;;
71771;SDS011;59606;52.138;5.424;2022-12-29T07:56:49;5.17;;;0.90;;
71771;SDS011;59606;52.138;5.424;2022-12-29T07:59:16;6.13;;;0.98;;
71771;SDS011;59606;52.138;5.424;2022-12-29T08:01:42;2.40;;;0.85;;
71771;SDS011;59606;52.138;5.424;2022-12-29T08:04:09;9.30;;;1.33;;
71771;SDS011;59606;52.138;5.424;2022-12-29T08:06:35;4.70;;;0.88;;
71771;SDS011;59606;52.138;5.424;2022-12-29T08:09:03;9.77;;;2.53;;
71771;SDS011;59606;52.138;5.424;2022-12-29T08:11:41;9.30;;;1.23;;
71771;SDS011;59606;52.138;5.424;2022-12-29T08:14:09;5.18;;;1.65;;
71771;SDS011;59606;52.138;5.424;2022-12-29T08:16:36;11.70;;;1.48;;
71771;SDS011;59606;52.138;5.424;2022-12-29T08:19:02;10.93;;;1.20;;
71771;SDS011;59606;52.138;5.424;2022-12-29T08:21:29;10.17;;;2.00;;
71771;SDS011;59606;52.138;5.424;2022-12-29T08:23:56;8.35;;;0.93;;
71771;SDS011;59606;52.138;5.424;2022-12-29T08:26:23;11.20;;;1.42;;
71771;SDS011;59606;52.138;5.424;2022-12-29T08:28:51;9.85;;;1.40;;
71771;SDS011;59606;52.138;5.424;2022-12-29T08:31:18;9.77;;;1.17;;
71771;SDS011;59606;52.138;5.424;2022-12-29T08:33:45;10.27;;;1.37;;
71771;SDS011;59606;52.138;5.424;2022-12-29T08:36:11;15.57;;;1.10;;
71771;SDS011;59606;52.138;5.424;2022-12-29T08:38:38;5.35;;;1.00;;
71771;SDS011;59606;52.138;5.424;2022-12-29T08:41:04;6.50;;;0.70;;
71771;SDS011;59606;52.138;5.424;2022-12-29T08:43:31;7.03;;;0.93;;
71771;SDS011;59606;52.138;5.424;2022-12-29T08:45:58;12.20;;;1.17;;
71771;SDS011;59606;52.138;5.424;2022-12-29T08:48:25;9.40;;;1.40;;
71771;SDS011;59606;52.138;5.424;2022-12-29T08:50:52;12.55;;;2.00;;
71771;SDS011;59606;52.138;5.424;2022-12-29T08:53:18;8.52;;;1.98;;
71771;SDS011;59606;52.138;5.424;2022-12-29T08:55:46;6.38;;;1.45;;
71771;SDS011;59606;52.138;5.424;2022-12-29T08:58:13;11.23;;;1.37;;
71771;SDS011;59606;52.138;5.424;2022-12-29T09:00:41;10.10;;;1.15;;
71771;SDS011;59606;52.138;5.424;2022-12-29T09:03:08;12.75;;;1.27;;
71771;SDS011;59606;52.138;5.424;2022-12-29T09:05:35;5.90;;;0.90;;
71771;SDS011;59606;52.138;5.424;2022-12-29T09:08:02;8.52;;;0.73;;
71771;SDS011;59606;52.138;5.424;2022-12-29T09:10:28;7.50;;;1.00;;
71771;SDS011;59606;52.138;5.424;2022-12-29T09:12:55;7.13;;;1.33;;
71771;SDS011;59606;52.138;5.424;2022-12-29T09:15:22;10.20;;;1.75;;
71771;SDS011;59606;52.138;5.424;2022-12-29T09:17:48;4.53;;;0.77;;
71771;SDS011;59606;52.138;5.424;2022-12-29T09:20:16;5.82;;;0.90;;
71771;SDS011;59606;52.138;5.424;2022-12-29T09:22:44;9.03;;;1.27;;
71771;SDS011;59606;52.138;5.424;2022-12-29T09:25:12;3.17;;;1.13;;
71771;SDS011;59606;52.138;5.424;2022-12-29T09:27:39;9.07;;;1.67;;
71771;SDS011;59606;52.138;5.424;2022-12-29T09:30:07;8.13;;;1.08;;
71771;SDS011;59606;52.138;5.424;2022-12-29T09:32:35;13.43;;;1.88;;
71771;SDS011;59606;52.138;5.424;2022-12-29T09:35:09;7.60;;;1.00;;
71771;SDS011;59606;52.138;5.424;2022-12-29T09:37:36;7.97;;;0.93;;
71771;SDS011;59606;52.138;5.424;2022-12-29T09:40:03;5.90;;;1.25;;
71771;SDS011;59606;52.138;5.424;2022-12-29T09:47:52;7.10;;;0.93;;
71771;SDS011;59606;52.138;5.424;2022-12-29T09:50:27;7.55;;;1.20;;
71771;SDS011;59606;52.138;5.424;2022-12-29T09:55:59;4.22;;;0.85;;
71771;SDS011;59606;52.138;5.424;2022-12-29T09:58:36;10.25;;;1.23;;
71771;SDS011;59606;52.138;5.424;2022-12-29T10:01:13;5.70;;;1.53;;
71771;SDS011;59606;52.138;5.424;2022-12-29T10:04:02;6.15;;;1.38;;
71771;SDS011;59606;52.138;5.424;2022-12-29T10:10:01;6.75;;;0.88;;
71771;SDS011;59606;52.138;5.424;2022-12-29T10:18:43;4.85;;;1.38;;
71771;SDS011;59606;52.138;5.424;2022-12-29T10:23:52;6.57;;;1.00;;
71771;SDS011;59606;52.138;5.424;2022-12-29T10:26:20;5.18;;;1.30;;
71771;SDS011;59606;52.138;5.424;2022-12-29T10:31:35;5.13;;;0.93;;
71771;SDS011;59606;52.138;5.424;2022-12-29T10:34:10;6.82;;;1.10;;
71771;SDS011;59606;52.138;5.424;2022-12-29T10:36:42;4.90;;;1.05;;
71771;SDS011;59606;52.138;5.424;2022-12-29T10:39:21;3.75;;;1.17;;
71771;SDS011;59606;52.138;5.424;2022-12-29T10:41:59;6.40;;;1.00;;
71771;SDS011;59606;52.138;5.424;2022-12-29T10:44:33;9.70;;;1.42;;
71771;SDS011;59606;52.138;5.424;2022-12-29T10:47:03;2.25;;;0.75;;
71771;SDS011;59606;52.138;5.424;2022-12-29T10:49:32;7.80;;;1.60;;
71771;SDS011;59606;52.138;5.424;2022-12-29T10:52:05;3.08;;;1.00;;
71771;SDS011;59606;52.138;5.424;2022-12-29T10:54:42;4.97;;;0.70;;
71771;SDS011;59606;52.138;5.424;2022-12-29T10:59:54;5.45;;;1.70;;
71771;SDS011;59606;52.138;5.424;2022-12-29T11:08:10;8.80;;;1.33;;
71771;SDS011;59606;52.138;5.424;2022-12-29T11:10:46;10.60;;;1.60;;
71771;SDS011;59606;52.138;5.424;2022-12-29T11:13:25;12.35;;;1.85;;
71771;SDS011;59606;52.138;5.424;2022-12-29T11:16:01;15.27;;;2.08;;
71771;SDS011;59606;52.138;5.424;2022-12-29T11:18:38;8.73;;;1.65;;
71771;SDS011;59606;52.138;5.424;2022-12-29T11:21:06;9.20;;;1.40;;
71771;SDS011;59606;52.138;5.424;2022-12-29T11:24:04;9.50;;;1.35;;
71771;SDS011;59606;52.138;5.424;2022-12-29T11:26:34;18.50;;;2.10;;
71771;SDS011;59606;52.138;5.424;2022-12-29T11:31:40;12.98;;;1.48;;
71771;SDS011;59606;52.138;5.424;2022-12-29T11:34:08;9.77;;;1.50;;
71771;SDS011;59606;52.138;5.424;2022-12-29T11:36:44;11.93;;;1.73;;
71771;SDS011;59606;52.138;5.424;2022-12-29T11:39:26;12.27;;;2.03;;
71771;SDS011;59606;52.138;5.424;2022-12-29T11:41:56;12.80;;;1.95;;
71771;SDS011;59606;52.138;5.424;2022-12-29T11:44:24;10.88;;;2.53;;
71771;SDS011;59606;52.138;5.424;2022-12-29T11:46:52;9.97;;;1.77;;
71771;SDS011;59606;52.138;5.424;2022-12-29T11:49:21;10.77;;;1.30;;
71771;SDS011;59606;52.138;5.424;2022-12-29T11:51:50;12.07;;;2.05;;
71771;SDS011;59606;52.138;5.424;2022-12-29T11:54:19;9.98;;;1.35;;
71771;SDS011;59606;52.138;5.424;2022-12-29T11:56:50;9.45;;;1.52;;
71771;SDS011;59606;52.138;5.424;2022-12-29T11:59:24;11.10;;;1.63;;
71771;SDS011;59606;52.138;5.424;2022-12-29T12:01:56;12.55;;;1.45;;
71771;SDS011;59606;52.138;5.424;2022-12-29T12:04:30;20.67;;;2.25;;
71771;SDS011;59606;52.138;5.424;2022-12-29T12:07:11;12.85;;;2.20;;
71771;SDS011;59606;52.138;5.424;2022-12-29T12:09:51;7.80;;;1.65;;
71771;SDS011;59606;52.138;5.424;2022-12-29T12:12:32;8.73;;;1.57;;
71771;SDS011;59606;52.138;5.424;2022-12-29T12:15:05;11.48;;;1.90;;
71771;SDS011;59606;52.138;5.424;2022-12-29T12:18:24;10.95;;;1.50;;
71771;SDS011;59606;52.138;5.424;2022-12-29T12:20:50;9.90;;;1.30;;
71771;SDS011;59606;52.138;5.424;2022-12-29T12:26:55;10.23;;;1.80;;
71771;SDS011;59606;52.138;5.424;2022-12-29T12:29:08;12.73;;;1.88;;
71771;SDS011;59606;52.138;5.424;2022-12-29T12:34:35;10.30;;;2.45;;
71771;SDS011;59606;52.138;5.424;2022-12-29T12:39:49;8.57;;;1.57;;
71771;SDS011;59606;52.138;5.424;2022-12-29T12:45:30;11.45;;;2.03;;
71771;SDS011;59606;52.138;5.424;2022-12-29T12:48:12;7.13;;;1.88;;
71771;SDS011;59606;52.138;5.424;2022-12-29T12:53:49;11.00;;;1.60;;
71771;SDS011;59606;52.138;5.424;2022-12-29T13:02:14;9.27;;;1.55;;
71771;SDS011;59606;52.138;5.424;2022-12-29T13:05:03;12.63;;;2.58;;
71771;SDS011;59606;52.138;5.424;2022-12-29T13:19:22;12.65;;;1.85;;
71771;SDS011;59606;52.138;5.424;2022-12-29T13:21:55;11.20;;;1.53;;
71771;SDS011;59606;52.138;5.424;2022-12-29T13:35:19;6.57;;;1.37;;
71771;SDS011;59606;52.138;5.424;2022-12-29T13:37:59;8.65;;;1.30;;
71771;SDS011;59606;52.138;5.424;2022-12-29T13:40:32;13.18;;;1.98;;
71771;SDS011;59606;52.138;5.424;2022-12-29T13:43:05;16.58;;;2.25;;
71771;SDS011;59606;52.138;5.424;2022-12-29T13:45:32;10.80;;;2.38;;
71771;SDS011;59606;52.138;5.424;2022-12-29T13:48:03;14.20;;;2.13;;
71771;SDS011;59606;52.138;5.424;2022-12-29T13:50:36;11.85;;;2.22;;
71771;SDS011;59606;52.138;5.424;2022-12-29T13:53:15;11.50;;;2.67;;
71771;SDS011;59606;52.138;5.424;2022-12-29T13:58:41;17.77;;;3.25;;
71771;SDS011;59606;52.138;5.424;2022-12-29T14:06:19;9.63;;;1.42;;
71771;SDS011;59606;52.138;5.424;2022-12-29T14:08:46;12.73;;;2.05;;
71771;SDS011;59606;52.138;5.424;2022-12-29T14:11:14;9.30;;;1.63;;
71771;SDS011;59606;52.138;5.424;2022-12-29T14:13:44;12.50;;;1.70;;
71771;SDS011;59606;52.138;5.424;2022-12-29T14:19:11;11.55;;;1.58;;
71771;SDS011;59606;52.138;5.424;2022-12-29T14:21:39;9.25;;;1.38;;
71771;SDS011;59606;52.138;5.424;2022-12-29T14:34:47;5.55;;;0.63;;
71771;SDS011;59606;52.138;5.424;2022-12-29T14:37:25;3.30;;;0.73;;
71771;SDS011;59606;52.138;5.424;2022-12-29T14:42:35;3.22;;;0.55;;
71771;SDS011;59606;52.138;5.424;2022-12-29T14:45:22;4.97;;;0.85;;
71771;SDS011;59606;52.138;5.424;2022-12-29T14:47:53;5.07;;;0.60;;
71771;SDS011;59606;52.138;5.424;2022-12-29T14:52:50;3.90;;;1.27;;
71771;SDS011;59606;52.138;5.424;2022-12-29T14:55:47;3.20;;;0.63;;
71771;SDS011;59606;52.138;5.424;2022-12-29T15:01:52;4.53;;;0.90;;
71771;SDS011;59606;52.138;5.424;2022-12-29T15:04:30;6.65;;;2.47;;
71771;SDS011;59606;52.138;5.424;2022-12-29T15:06:58;6.97;;;2.40;;
71771;SDS011;59606;52.138;5.424;2022-12-29T15:09:31;5.78;;;2.20;;
71771;SDS011;59606;52.138;5.424;2022-12-29T15:14:39;4.70;;;1.48;;
71771;SDS011;59606;52.138;5.424;2022-12-29T15:19:53;8.43;;;1.50;;
71771;SDS011;59606;52.138;5.424;2022-12-29T15:22:23;5.20;;;1.40;;
71771;SDS011;59606;52.138;5.424;2022-12-29T15:24:52;5.82;;;1.13;;
71771;SDS011;59606;52.138;5.424;2022-12-29T15:27:24;4.72;;;1.40;;
71771;SDS011;59606;52.138;5.424;2022-12-29T15:29:59;6.20;;;1.45;;
71771;SDS011;59606;52.138;5.424;2022-12-29T15:32:29;6.73;;;1.47;;
71771;SDS011;59606;52.138;5.424;2022-12-29T15:35:20;7.20;;;2.22;;
71771;SDS011;59606;52.138;5.424;2022-12-29T15:37:56;12.15;;;1.90;;
71771;SDS011;59606;52.138;5.424;2022-12-29T15:40:25;5.15;;;1.33;;
71771;SDS011;59606;52.138;5.424;2022-12-29T15:45:40;5.13;;;1.53;;
71771;SDS011;59606;52.138;5.424;2022-12-29T15:48:13;5.05;;;1.35;;
71771;SDS011;59606;52.138;5.424;2022-12-29T15:50:44;8.02;;;2.25;;
71771;SDS011;59606;52.138;5.424;2022-12-29T15:53:12;6.53;;;1.50;;
71771;SDS011;59606;52.138;5.424;2022-12-29T15:56:01;8.57;;;1.30;;
71771;SDS011;59606;52.138;5.424;2022-12-29T15:58:39;3.50;;;0.80;;
71771;SDS011;59606;52.138;5.424;2022-12-29T16:01:17;10.00;;;1.50;;
71771;SDS011;59606;52.138;5.424;2022-12-29T16:03:51;7.13;;;1.15;;
71771;SDS011;59606;52.138;5.424;2022-12-29T16:06:37;6.38;;;0.95;;
71771;SDS011;59606;52.138;5.424;2022-12-29T16:09:16;8.75;;;1.27;;
71771;SDS011;59606;52.138;5.424;2022-12-29T16:11:46;6.73;;;1.30;;
71771;SDS011;59606;52.138;5.424;2022-12-29T16:14:17;5.78;;;1.40;;
71771;SDS011;59606;52.138;5.424;2022-12-29T16:16:47;8.25;;;1.25;;
71771;SDS011;59606;52.138;5.424;2022-12-29T16:19:18;8.57;;;1.33;;
71771;SDS011;59606;52.138;5.424;2022-12-29T16:21:50;3.70;;;0.63;;
71771;SDS011;59606;52.138;5.424;2022-12-29T16:24:20;4.43;;;0.63;;
71771;SDS011;59606;52.138;5.424;2022-12-29T16:26:53;8.65;;;1.77;;
71771;SDS011;59606;52.138;5.424;2022-12-29T16:29:25;3.50;;;0.90;;
71771;SDS011;59606;52.138;5.424;2022-12-29T16:31:56;4.75;;;1.00;;
71771;SDS011;59606;52.138;5.424;2022-12-29T16:39:55;4.40;;;1.13;;
71771;SDS011;59606;52.138;5.424;2022-12-29T16:42:35;6.07;;;1.25;;
71771;SDS011;59606;52.138;5.424;2022-12-29T16:47:46;9.50;;;3.83;;
71771;SDS011;59606;52.138;5.424;2022-12-29T16:50:18;5.27;;;0.70;;
71771;SDS011;59606;52.138;5.424;2022-12-29T16:52:53;7.50;;;0.95;;
71771;SDS011;59606;52.138;5.424;2022-12-29T16:55:20;6.55;;;1.02;;
71771;SDS011;59606;52.138;5.424;2022-12-29T16:57:47;5.95;;;1.10;;
71771;SDS011;59606;52.138;5.424;2022-12-29T17:00:20;6.47;;;0.75;;
71771;SDS011;59606;52.138;5.424;2022-12-29T17:02:49;4.00;;;0.73;;
71771;SDS011;59606;52.138;5.424;2022-12-29T17:05:18;3.20;;;0.63;;
71771;SDS011;59606;52.138;5.424;2022-12-29T17:07:45;8.70;;;1.63;;
71771;SDS011;59606;52.138;5.424;2022-12-29T17:10:12;3.60;;;0.50;;
71771;SDS011;59606;52.138;5.424;2022-12-29T17:12:40;5.85;;;1.52;;
71771;SDS011;59606;52.138;5.424;2022-12-29T17:15:18;11.57;;;1.33;;
71771;SDS011;59606;52.138;5.424;2022-12-29T17:17:51;9.95;;;1.20;;
71771;SDS011;59606;52.138;5.424;2022-12-29T17:20:22;6.88;;;0.90;;
71771;SDS011;59606;52.138;5.424;2022-12-29T17:22:56;7.38;;;0.93;;
71771;SDS011;59606;52.138;5.424;2022-12-29T17:25:34;3.97;;;0.80;;
71771;SDS011;59606;52.138;5.424;2022-12-29T17:28:03;7.83;;;0.80;;
71771;SDS011;59606;52.138;5.424;2022-12-29T17:30:37;3.72;;;0.60;;
71771;SDS011;59606;52.138;5.424;2022-12-29T17:33:08;7.32;;;1.45;;
71771;SDS011;59606;52.138;5.424;2022-12-29T17:35:38;3.53;;;0.70;;
71771;SDS011;59606;52.138;5.424;2022-12-29T17:38:17;4.18;;;0.90;;
71771;SDS011;59606;52.138;5.424;2022-12-29T17:40:54;12.00;;;1.40;;
71771;SDS011;59606;52.138;5.424;2022-12-29T17:43:21;4.53;;;1.00;;
71771;SDS011;59606;52.138;5.424;2022-12-29T17:45:49;6.15;;;1.40;;
71771;SDS011;59606;52.138;5.424;2022-12-29T17:48:19;12.27;;;1.88;;
71771;SDS011;59606;52.138;5.424;2022-12-29T17:50:46;5.05;;;1.10;;
71771;SDS011;59606;52.138;5.424;2022-12-29T17:53:15;9.03;;;1.33;;